Time;durP1;ratioP1;P1;durP2;ratioP2;P2;SDS_P1;SDS_P2;PMS_P1;PMS_P2;Temp;Humidity;BMP_temperature;BMP_pressure;BME280_temperature;BME280_humidity;BME280_pressure;Samples;Min_cycle;Max_cycle;Signal;HPM_P1;HPM_P2
2023/05/25 00:00:27;;;;;;;12.90;6.47;;;;;;;3.08;100.00;97240.09;10578588;28;20198;-66
2023/05/25 00:05:28;;;;;;;17.17;6.37;;;;;;;3.06;100.00;97238.53;10578416;28;20246;-65
2023/05/25 00:10:28;;;;;;;16.00;7.37;;;;;;;3.02;100.00;97243.09;10578162;28;20250;-66
2023/05/25 00:15:28;;;;;;;16.97;7.73;;;;;;;2.98;100.00;97242.41;10577331;28;20185;-66
2023/05/25 00:20:29;;;;;;;18.17;7.80;;;;;;;3.00;100.00;97242.31;10578070;28;20276;-65
2023/05/25 00:25:29;;;;;;;16.03;7.53;;;;;;;2.90;100.00;97242.09;10577870;28;20201;-66
2023/05/25 00:30:29;;;;;;;16.10;7.53;;;;;;;2.90;100.00;97241.25;10577757;28;20217;-66
2023/05/25 00:35:32;;;;;;;20.93;8.00;;;;;;;2.85;100.00;97234.59;10577955;28;20185;-67
2023/05/25 00:40:34;;;;;;;15.23;7.60;;;;;;;2.82;100.00;97234.78;10592454;22;20252;-63
2023/05/25 00:45:34;;;;;;;18.90;7.93;;;;;;;2.74;100.00;97236.19;10576603;28;20193;-63
2023/05/25 00:50:42;;;;;;;15.23;7.30;;;;;;;2.73;100.00;97227.59;10577160;28;20569;-63
2023/05/25 00:55:49;;;;;;;13.23;6.40;;;;;;;2.63;100.00;97229.94;10577311;28;20193;-63
2023/05/25 01:00:52;;;;;;;16.23;7.07;;;;;;;2.67;100.00;97228.81;10576630;28;20197;-63
2023/05/25 01:05:54;;;;;;;15.53;7.37;;;;;;;2.73;100.00;97231.97;10558656;28;20193;-63
2023/05/25 01:10:56;;;;;;;18.80;6.77;;;;;;;2.72;100.00;97231.09;10577005;28;20218;-64
2023/05/25 01:15:56;;;;;;;11.93;5.93;;;;;;;2.65;100.00;97229.84;10558810;28;20193;-64
2023/05/25 01:21:12;;;;;;;16.40;6.77;;;;;;;2.64;100.00;97233.34;10576567;28;20198;-64
2023/05/25 01:26:15;;;;;;;14.27;7.57;;;;;;;2.69;100.00;97231.31;10581182;28;20194;-63
2023/05/25 01:31:18;;;;;;;13.90;5.97;;;;;;;2.64;100.00;97236.75;10584414;28;20308;-64
2023/05/25 01:36:18;;;;;;;12.77;6.73;;;;;;;2.59;100.00;97232.78;10566087;28;20560;-63
2023/05/25 01:41:19;;;;;;;9.83;5.70;;;;;;;2.55;100.00;97234.72;10583287;28;20237;-63
2023/05/25 01:46:34;;;;;;;13.07;5.83;;;;;;;2.52;100.00;97241.84;10582135;28;20682;-63
2023/05/25 01:51:43;;;;;;;11.57;5.93;;;;;;;2.52;100.00;97236.69;10547936;28;20224;-63
2023/05/25 01:56:45;;;;;;;10.13;6.93;;;;;;;2.46;100.00;97237.88;10547875;28;20193;-63
2023/05/25 02:01:47;;;;;;;13.33;6.83;;;;;;;2.47;100.00;97240.38;10564764;28;20209;-63
2023/05/25 02:06:50;;;;;;;13.07;7.37;;;;;;;2.44;100.00;97235.38;10581785;28;20549;-63
2023/05/25 02:11:52;;;;;;;11.40;5.93;;;;;;;2.45;100.00;97250.00;10564359;28;20222;-63
2023/05/25 02:16:53;;;;;;;13.70;6.90;;;;;;;2.40;100.00;97248.59;10564414;28;20185;-64
2023/05/25 02:21:53;;;;;;;11.23;5.50;;;;;;;2.42;100.00;97246.75;10564024;28;20589;-63
2023/05/25 02:26:56;;;;;;;7.20;4.73;;;;;;;2.38;100.00;97247.88;10582241;28;20194;-63
2023/05/25 02:31:57;;;;;;;11.67;6.47;;;;;;;2.31;100.00;97248.22;10563685;28;20580;-63
2023/05/25 02:37:00;;;;;;;11.87;6.43;;;;;;;2.36;100.00;97254.88;10581115;28;20223;-64
2023/05/25 02:42:01;;;;;;;15.10;6.30;;;;;;;2.28;100.00;97256.19;10581432;28;20723;-64
2023/05/25 02:47:01;;;;;;;22.53;7.73;;;;;;;2.23;100.00;97263.34;10556812;28;20186;-64
2023/05/25 02:52:02;;;;;;;15.50;6.80;;;;;;;2.21;100.00;97266.97;10538872;28;20229;-64
2023/05/25 02:57:03;;;;;;;16.27;6.87;;;;;;;2.14;100.00;97262.16;10520664;28;20190;-64
2023/05/25 03:02:05;;;;;;;18.60;7.20;;;;;;;2.12;100.00;97271.75;10522303;28;20259;-64
2023/05/25 03:07:05;;;;;;;13.00;6.97;;;;;;;2.16;100.00;97279.31;10562264;28;20909;-63
2023/05/25 03:12:06;;;;;;;12.90;6.43;;;;;;;2.17;100.00;97286.16;10578716;28;20292;-63
2023/05/25 03:17:07;;;;;;;11.63;7.40;;;;;;;2.21;100.00;97290.22;10578932;28;20193;-64
2023/05/25 03:22:07;;;;;;;13.40;6.23;;;;;;;2.28;100.00;97287.19;10578259;28;20373;-63
2023/05/25 03:27:08;;;;;;;15.27;7.10;;;;;;;2.28;100.00;97294.09;10561682;28;20659;-63
2023/05/25 03:32:09;;;;;;;15.83;7.27;;;;;;;2.16;100.00;97292.25;10561223;28;20698;-63
2023/05/25 03:37:10;;;;;;;13.90;7.03;;;;;;;2.27;100.00;97295.88;10578225;28;20181;-63
2023/05/25 03:42:11;;;;;;;10.53;6.13;;;;;;;2.31;100.00;97307.69;10577676;28;20230;-63
2023/05/25 03:47:12;;;;;;;16.17;7.60;;;;;;;2.26;100.00;97309.69;10560619;28;20193;-63
2023/05/25 03:52:12;;;;;;;13.87;7.00;;;;;;;2.38;100.00;97318.50;10577501;28;20198;-63
2023/05/25 03:57:13;;;;;;;12.80;6.13;;;;;;;2.43;100.00;97323.41;10576830;28;20201;-63
2023/05/25 04:02:13;;;;;;;10.07;5.57;;;;;;;2.49;100.00;97321.25;10578029;28;20759;-62
2023/05/25 04:07:13;;;;;;;18.40;6.00;;;;;;;2.48;100.00;97316.19;10578473;28;20749;-63
2023/05/25 04:12:14;;;;;;;14.57;6.60;;;;;;;2.59;100.00;97321.56;10578020;28;20194;-63
2023/05/25 04:17:14;;;;;;;13.83;6.73;;;;;;;2.71;100.00;97337.28;10560144;28;20209;-63
2023/05/25 04:22:15;;;;;;;11.27;6.60;;;;;;;2.84;100.00;97330.44;10577481;28;20216;-63
2023/05/25 04:27:16;;;;;;;10.37;6.13;;;;;;;3.06;100.00;97331.72;10559902;28;20190;-63
2023/05/25 04:32:17;;;;;;;12.03;5.77;;;;;;;3.29;100.00;97333.72;10559414;28;20205;-63
2023/05/25 04:37:39;;;;;;;12.43;6.17;;;;;;;3.53;100.00;97331.31;10559605;28;20192;-63
2023/05/25 04:42:41;;;;;;;19.33;7.17;;;;;;;3.69;100.00;97326.00;10558925;28;20222;-62
2023/05/25 04:47:42;;;;;;;10.53;6.23;;;;;;;3.83;100.00;97319.94;10559397;28;20197;-63
2023/05/25 04:52:44;;;;;;;10.40;5.43;;;;;;;4.14;100.00;97327.47;10559312;28;20202;-63
2023/05/25 04:57:45;;;;;;;11.47;6.10;;;;;;;4.45;100.00;97316.69;10558857;28;20186;-64
2023/05/25 05:02:46;;;;;;;14.33;6.40;;;;;;;4.75;100.00;97322.53;10584535;28;20703;-64
2023/05/25 05:07:47;;;;;;;13.00;5.50;;;;;;;5.09;100.00;97320.19;10567063;28;20192;-64
2023/05/25 05:12:47;;;;;;;12.67;5.53;;;;;;;5.47;100.00;97319.25;10567033;28;20178;-63
2023/05/25 05:17:48;;;;;;;16.60;6.70;;;;;;;5.75;100.00;97304.28;10566706;28;20199;-64
2023/05/25 05:22:49;;;;;;;18.47;6.43;;;;;;;6.03;100.00;97305.69;10566422;28;20209;-63
2023/05/25 05:27:50;;;;;;;13.93;5.53;;;;;;;6.40;100.00;97306.41;10566478;28;20217;-64
2023/05/25 05:32:57;;;;;;;16.70;6.03;;;;;;;6.82;100.00;97297.22;10566158;28;20182;-63
2023/05/25 05:38:02;;;;;;;9.37;5.37;;;;;;;7.20;100.00;97290.75;10565829;28;20239;-63
2023/05/25 05:43:02;;;;;;;13.27;5.67;;;;;;;7.26;100.00;97282.50;10565700;28;20722;-63
2023/05/25 05:48:08;;;;;;;13.97;6.13;;;;;;;7.82;100.00;97282.28;10583625;28;20578;-63
2023/05/25 05:53:09;;;;;;;15.33;5.57;;;;;;;8.37;100.00;97286.53;10565482;28;20178;-63
2023/05/25 05:58:10;;;;;;;11.57;4.53;;;;;;;8.91;100.00;97269.78;10564937;28;20229;-63
2023/05/25 06:03:10;;;;;;;9.03;4.87;;;;;;;9.60;100.00;97260.28;10557290;28;20217;-63
2023/05/25 06:08:12;;;;;;;10.10;4.20;;;;;;;10.21;99.51;97247.03;10537644;28;20216;-63
2023/05/25 06:13:12;;;;;;;14.27;4.50;;;;;;;10.86;92.08;97213.06;10521123;28;20183;-63
2023/05/25 06:18:13;;;;;;;11.50;3.25;;;;;;;11.74;90.20;97215.88;10522524;28;20217;-64
2023/05/25 06:23:14;;;;;;;9.23;3.20;;;;;;;12.38;84.12;97191.25;10522398;28;20567;-65
2023/05/25 06:28:15;;;;;;;12.10;3.22;;;;;;;12.97;78.11;97178.19;10540113;28;20245;-65
2023/05/25 06:33:15;;;;;;;9.77;3.15;;;;;;;13.28;73.90;97141.59;10521567;28;20183;-65
2023/05/25 06:38:17;;;;;;;12.10;3.30;;;;;;;13.66;73.34;97139.34;10520737;28;20230;-65
2023/05/25 06:43:17;;;;;;;5.65;2.50;;;;;;;14.26;70.66;97138.09;10534681;28;20806;-65
2023/05/25 06:48:27;;;;;;;10.43;3.80;;;;;;;15.68;62.92;97066.66;10518747;28;20198;-64
2023/05/25 06:53:28;;;;;;;7.40;3.13;;;;;;;15.77;62.43;97083.25;10519118;28;20197;-65
2023/05/25 06:58:28;;;;;;;9.48;3.08;;;;;;;14.43;65.81;97116.94;10536164;28;20253;-65
2023/05/25 07:03:29;;;;;;;9.43;3.20;;;;;;;15.91;60.92;97057.03;10535006;28;20212;-64
2023/05/25 07:08:30;;;;;;;7.57;3.28;;;;;;;15.59;61.80;97086.22;10534617;28;20207;-65
2023/05/25 07:13:30;;;;;;;7.35;3.40;;;;;;;15.00;63.47;97107.13;10529961;28;20202;-65
2023/05/25 07:18:30;;;;;;;6.80;2.92;;;;;;;15.65;61.95;97089.94;10534127;28;20225;-64
2023/05/25 07:23:31;;;;;;;7.75;3.40;;;;;;;15.62;62.44;97124.66;10563852;28;20194;-65
2023/05/25 07:28:31;;;;;;;7.00;3.00;;;;;;;17.66;55.34;97042.84;10544238;28;20209;-64
2023/05/25 07:33:32;;;;;;;8.15;3.45;;;;;;;18.25;54.57;97041.56;10554198;28;20198;-64
2023/05/25 07:38:32;;;;;;;7.47;4.03;;;;;;;18.49;54.26;97052.72;10496925;28;1006334;-64
2023/05/25 07:43:32;;;;;;;8.25;2.75;;;;;;;19.12;50.56;97001.22;10560066;28;20224;-65
2023/05/25 07:48:33;;;;;;;9.32;3.60;;;;;;;18.35;51.96;97025.31;10575443;28;20206;-66
2023/05/25 07:53:33;;;;;;;7.15;3.13;;;;;;;19.19;48.59;96984.25;10576313;28;20185;-64
2023/05/25 07:58:33;;;;;;;8.90;3.38;;;;;;;17.60;52.70;97031.19;10548213;28;20294;-65
2023/05/25 08:03:34;;;;;;;9.45;3.67;;;;;;;17.61;53.46;97061.97;10533849;28;20252;-64
2023/05/25 08:08:36;;;;;;;8.93;3.42;;;;;;;19.06;50.37;97027.53;10533288;28;20230;-64
2023/05/25 08:13:37;;;;;;;13.05;4.25;;;;;;;18.32;51.66;97044.28;10559471;28;20656;-63
2023/05/25 08:18:37;;;;;;;6.57;3.30;;;;;;;19.00;50.85;97054.91;10549397;28;20222;-64
2023/05/25 08:23:41;;;;;;;5.45;2.67;;;;;;;19.66;48.41;97028.56;10532826;28;20649;-63
2023/05/25 08:28:41;;;;;;;7.90;3.03;;;;;;;18.72;50.26;97037.25;10532300;28;20660;-64
2023/05/25 08:33:41;;;;;;;7.95;3.13;;;;;;;19.69;49.15;97042.25;10556984;28;20232;-64
2023/05/25 08:38:42;;;;;;;11.45;3.75;;;;;;;18.47;50.30;97039.63;10574501;28;20229;-64
2023/05/25 08:43:42;;;;;;;8.80;3.25;;;;;;;19.95;47.72;97030.81;10574623;28;20307;-65
2023/05/25 08:48:44;;;;;;;6.75;3.47;;;;;;;21.01;44.99;97001.25;10574643;28;20209;-65
2023/05/25 08:53:44;;;;;;;8.75;3.60;;;;;;;20.16;47.54;97031.56;10574719;28;21038;-66
2023/05/25 08:58:51;;;;;;;7.95;3.90;;;;;;;20.33;49.50;97074.47;10555184;28;20213;-66
2023/05/25 09:03:52;;;;;;;11.07;4.95;;;;;;;18.09;52.77;97084.34;10531193;28;20195;-64
2023/05/25 09:08:53;;;;;;;11.65;4.32;;;;;;;19.81;50.51;97097.50;10532288;28;20202;-65
2023/05/25 09:13:54;;;;;;;8.88;4.40;;;;;;;19.53;50.32;97086.03;10531641;28;20574;-64
2023/05/25 09:18:54;;;;;;;11.23;5.13;;;;;;;19.69;49.75;97079.47;10556095;28;20222;-65
2023/05/25 09:23:54;;;;;;;9.52;4.30;;;;;;;18.76;52.40;97119.97;10548884;28;20235;-65
2023/05/25 09:28:55;;;;;;;11.50;4.75;;;;;;;19.76;49.85;97090.94;10531792;28;20206;-65
2023/05/25 09:33:58;;;;;;;9.70;4.38;;;;;;;21.17;47.07;97080.66;10543161;28;20186;-65
2023/05/25 09:38:59;;;;;;;11.02;4.43;;;;;;;20.73;46.05;97049.56;10553657;28;20226;-64
2023/05/25 09:44:00;;;;;;;9.48;4.18;;;;;;;22.36;42.92;97023.84;10552017;28;20190;-64
2023/05/25 09:49:02;;;;;;;9.48;4.40;;;;;;;20.80;46.20;97061.03;10580317;28;20205;-64
2023/05/25 09:54:04;;;;;;;9.68;4.47;;;;;;;20.46;48.00;97094.94;10580923;28;20186;-63
2023/05/25 09:59:05;;;;;;;11.45;4.95;;;;;;;21.79;45.34;97081.88;10580178;28;20594;-65
2023/05/25 10:04:05;;;;;;;10.25;5.07;;;;;;;23.80;40.58;97027.47;10577164;28;20186;-64
2023/05/25 10:09:07;;;;;;;9.20;4.78;;;;;;;21.05;45.64;97065.59;10554383;28;20223;-65
2023/05/25 10:14:09;;;;;;;9.30;4.90;;;;;;;22.22;43.62;97060.50;10539438;28;20685;-64
2023/05/25 10:19:16;;;;;;;9.95;4.70;;;;;;;21.38;43.94;97036.03;10543070;28;20266;-66
2023/05/25 10:24:24;;;;;;;12.55;5.25;;;;;;;21.66;43.64;97037.47;10579972;28;20197;-66
2023/05/25 10:29:26;;;;;;;9.95;3.92;;;;;;;22.83;42.16;97043.78;10560768;28;20572;-66
2023/05/25 10:34:27;;;;;;;10.27;4.57;;;;;;;21.15;42.78;96994.81;10536302;28;20210;-67
2023/05/25 10:39:28;;;;;;;8.48;3.95;;;;;;;20.97;44.73;97048.81;10560562;28;20343;-67
2023/05/25 10:44:29;;;;;;;9.43;4.05;;;;;;;22.75;42.76;97059.06;10560286;28;20181;-66
2023/05/25 10:49:36;;;;;;;6.32;3.70;;;;;;;23.50;38.33;96972.22;10536362;28;20789;-66
2023/05/25 10:54:38;;;;;;;9.00;4.47;;;;;;;22.54;41.80;97019.50;10555451;28;20241;-66
2023/05/25 10:59:44;;;;;;;9.43;4.20;;;;;;;23.63;39.86;97007.78;10568358;28;20283;-67
2023/05/25 11:04:46;;;;;;;12.05;4.47;;;;;;;21.80;41.68;96988.28;10538712;28;20608;-66
2023/05/25 11:09:58;;;;;;;7.88;4.47;;;;;;;22.64;38.87;96949.53;10550200;28;20226;-66
2023/05/25 11:15:08;;;;;;;6.88;3.53;;;;;;;22.80;39.40;96965.72;10557182;28;20189;-66
2023/05/25 11:20:20;;;;;;;7.70;4.13;;;;;;;23.88;36.31;96921.16;10577171;28;20694;-67
2023/05/25 11:25:39;;;;;;;8.88;4.22;;;;;;;23.14;41.77;97046.22;10577208;28;20186;-67
2023/05/25 11:30:40;;;;;;;8.13;4.07;;;;;;;24.20;38.98;97013.34;10549822;28;20240;-67
2023/05/25 11:35:44;;;;;;;8.68;4.10;;;;;;;24.44;39.00;97004.44;10551191;28;20795;-67
2023/05/25 11:40:44;;;;;;;6.75;3.53;;;;;;;24.82;37.67;96995.81;10532809;28;20235;-67
2023/05/25 11:45:55;;;;;;;9.02;4.28;;;;;;;23.99;38.79;96980.00;10560555;28;20254;-67
2023/05/25 11:51:05;;;;;;;7.78;3.63;;;;;;;24.71;36.52;96948.44;10548528;28;20217;-67
2023/05/25 11:56:05;;;;;;;9.60;4.10;;;;;;;23.77;37.61;96938.84;10534135;28;20201;-66
2023/05/25 12:01:22;;;;;;;7.45;3.78;;;;;;;23.25;38.91;96966.31;10533305;28;20214;-67
2023/05/25 12:06:29;;;;;;;9.63;3.72;;;;;;;24.07;38.98;96994.06;10563825;28;20186;-68
2023/05/25 12:11:34;;;;;;;6.95;3.50;;;;;;;25.10;35.23;96921.78;10573526;28;20213;-68
2023/05/25 12:16:37;;;;;;;6.10;3.65;;;;;;;23.97;34.46;96834.09;10544855;28;20190;-67
2023/05/25 12:21:40;;;;;;;9.13;3.83;;;;;;;23.49;40.40;96996.50;10532801;28;20297;-68
2023/05/25 12:26:48;;;;;;;6.35;4.05;;;;;;;23.43;38.11;96928.75;10545226;28;20276;-67
2023/05/25 12:31:49;;;;;;;10.73;4.07;;;;;;;24.91;35.03;96903.22;10575291;28;20247;-67
2023/05/25 12:36:53;;;;;;;5.13;3.45;;;;;;;24.11;37.57;96931.78;10574083;28;20273;-68
2023/05/25 12:41:54;;;;;;;7.22;3.80;;;;;;;24.53;36.40;96928.00;10574612;28;20226;-66
2023/05/25 12:46:55;;;;;;;6.90;3.90;;;;;;;25.63;34.27;96892.75;10541175;28;20313;-66
2023/05/25 12:51:57;;;;;;;6.93;3.90;;;;;;;25.32;35.13;96913.81;10532246;28;20213;-66
2023/05/25 12:56:57;;;;;;;7.22;3.85;;;;;;;22.97;37.83;96884.88;10533219;28;20216;-66
2023/05/25 13:01:57;;;;;;;7.50;4.15;;;;;;;23.99;36.69;96893.56;10553360;28;20717;-65
2023/05/25 13:06:58;;;;;;;9.25;4.13;;;;;;;25.60;36.43;96963.81;10551942;28;20560;-65
2023/05/25 13:12:00;;;;;;;7.65;3.45;;;;;;;25.60;33.40;96855.69;10552114;28;20209;-65
2023/05/25 13:17:00;;;;;;;6.55;3.47;;;;;;;26.74;33.62;96914.16;10552595;28;20189;-66
2023/05/25 13:22:01;;;;;;;6.23;3.53;;;;;;;25.34;34.51;96882.19;10537238;28;20226;-66
2023/05/25 13:27:01;;;;;;;7.88;3.88;;;;;;;26.09;33.59;96897.91;10539687;28;20475;-65
2023/05/25 13:32:01;;;;;;;8.57;3.83;;;;;;;26.44;33.77;96905.50;10539826;28;20214;-66
2023/05/25 13:37:02;;;;;;;7.73;4.10;;;;;;;26.52;34.35;96925.75;10539351;28;20444;-67
2023/05/25 13:42:02;;;;;;;7.80;3.30;;;;;;;27.51;32.03;96894.00;10538849;28;20556;-65
2023/05/25 13:47:03;;;;;;;9.07;3.80;;;;;;;27.40;32.37;96890.47;10539043;28;20440;-66
2023/05/25 13:52:03;;;;;;;8.55;3.45;;;;;;;27.73;31.65;96869.66;10567800;28;20212;-66
2023/05/25 13:57:06;;;;;;;5.18;3.28;;;;;;;27.47;29.88;96806.81;10580999;28;20276;-67
2023/05/25 14:02:06;;;;;;;9.23;3.47;;;;;;;28.41;30.92;96879.53;10562191;28;20229;-67
2023/05/25 14:07:06;;;;;;;6.60;3.30;;;;;;;28.61;31.42;96896.84;10558845;28;20178;-67
2023/05/25 14:12:07;;;;;;;8.53;4.03;;;;;;;29.57;27.72;96802.53;10547832;28;20583;-67
2023/05/25 14:17:07;;;;;;;7.65;3.42;;;;;;;29.96;29.45;96876.69;10566821;28;20436;-66
2023/05/25 14:22:08;;;;;;;5.30;3.58;;;;;;;29.78;29.17;96842.97;10578646;28;20244;-67
2023/05/25 14:27:08;;;;;;;5.33;3.33;;;;;;;29.46;27.89;96793.69;10550991;28;20537;-65
2023/05/25 14:32:08;;;;;;;6.87;2.90;;;;;;;30.06;29.25;96863.94;10538184;28;21662;-67
2023/05/25 14:37:09;;;;;;;9.20;3.63;;;;;;;27.24;32.12;96824.16;10550986;28;20810;-66
2023/05/25 14:42:10;;;;;;;7.22;3.78;;;;;;;29.43;29.51;96840.13;10536788;28;20598;-66
2023/05/25 14:47:10;;;;;;;7.40;3.13;;;;;;;30.87;27.81;96860.94;10564458;28;20190;-67
2023/05/25 14:52:10;;;;;;;6.60;3.50;;;;;;;29.81;29.59;96861.34;10577553;28;20229;-66
2023/05/25 14:57:11;;;;;;;6.53;3.40;;;;;;;27.90;30.88;96817.44;10550940;28;20541;-66
2023/05/25 15:02:11;;;;;;;7.43;2.73;;;;;;;29.93;28.34;96829.41;10536024;28;20464;-66
2023/05/25 15:07:13;;;;;;;6.47;2.87;;;;;;;29.76;26.99;96780.34;10562912;28;20511;-66
2023/05/25 15:12:14;;;;;;;8.73;3.20;;;;;;;28.28;28.95;96800.03;10577581;28;20528;-65
2023/05/25 15:17:14;;;;;;;6.07;2.70;;;;;;;27.04;32.34;96844.50;10577740;28;20240;-65
2023/05/25 15:22:14;;;;;;;7.03;3.17;;;;;;;27.46;31.31;96837.50;10575489;28;20206;-66
2023/05/25 15:27:15;;;;;;;7.32;3.03;;;;;;;28.83;29.29;96842.66;10563257;28;20520;-66
2023/05/25 15:32:16;;;;;;;7.93;2.90;;;;;;;28.20;30.04;96826.72;10571979;28;20226;-67
2023/05/25 15:37:17;;;;;;;5.22;3.00;;;;;;;28.91;29.59;96841.28;10555496;28;20962;-65
2023/05/25 15:42:17;;;;;;;8.75;3.70;;;;;;;28.41;29.92;96838.31;10571836;28;20229;-67
2023/05/25 15:47:17;;;;;;;9.17;3.80;;;;;;;27.96;30.14;96811.03;10533866;28;20198;-66
2023/05/25 15:52:18;;;;;;;5.87;3.40;;;;;;;27.34;31.08;96820.75;10533645;28;21012;-66
2023/05/25 15:57:18;;;;;;;8.37;4.10;;;;;;;24.39;36.24;96852.50;10556652;28;20827;-67
2023/05/25 16:02:18;;;;;;;8.73;3.93;;;;;;;25.99;33.73;96843.03;10568289;28;20862;-67
2023/05/25 16:07:19;;;;;;;8.43;3.75;;;;;;;24.84;36.70;96880.31;10551111;28;21017;-67
2023/05/25 16:12:21;;;;;;;10.10;3.63;;;;;;;23.89;36.95;96859.38;10535875;28;20230;-67
2023/05/25 16:17:21;;;;;;;7.13;3.90;;;;;;;23.19;37.99;96865.66;10535990;28;20484;-65
2023/05/25 16:22:21;;;;;;;8.80;4.07;;;;;;;20.87;43.44;96933.94;10535737;28;20220;-65
2023/05/25 16:27:22;;;;;;;7.10;4.05;;;;;;;20.46;43.80;96937.91;10536291;28;20190;-66
2023/05/25 16:32:22;;;;;;;7.55;3.83;;;;;;;20.81;43.73;96942.81;10535410;28;20234;-66
2023/05/25 16:37:22;;;;;;;9.57;3.78;;;;;;;20.00;46.17;96982.31;10535887;28;20233;-66
2023/05/25 16:42:25;;;;;;;13.32;4.53;;;;;;;19.45;47.72;96995.91;10535044;28;20239;-66
2023/05/25 16:47:25;;;;;;;10.25;3.90;;;;;;;20.11;47.27;97015.44;10535521;28;20672;-65
2023/05/25 16:52:25;;;;;;;8.55;4.05;;;;;;;20.29;45.71;96988.13;10539002;28;20216;-64
2023/05/25 16:57:26;;;;;;;7.60;4.07;;;;;;;20.44;46.15;96996.66;10542618;28;20186;-66
2023/05/25 17:02:26;;;;;;;9.18;4.60;;;;;;;19.68;47.75;97007.91;10551432;28;20271;-65
2023/05/25 17:07:27;;;;;;;11.80;4.10;;;;;;;19.48;48.46;97019.41;10577858;28;20664;-65
2023/05/25 17:12:27;;;;;;;13.00;4.55;;;;;;;18.85;50.09;97041.81;10581400;28;20225;-65
2023/05/25 17:17:28;;;;;;;11.23;4.68;;;;;;;18.74;50.59;97052.16;10579416;28;20194;-64
2023/05/25 17:22:28;;;;;;;10.00;5.07;;;;;;;18.27;52.43;97070.53;10541239;28;20199;-64
2023/05/25 17:27:28;;;;;;;12.27;4.53;;;;;;;18.28;52.57;97073.00;10541660;28;20199;-65
2023/05/25 17:32:29;;;;;;;12.63;4.15;;;;;;;18.21;52.86;97082.78;10540827;28;20294;-64
2023/05/25 17:37:29;;;;;;;11.48;4.80;;;;;;;17.96;53.38;97085.06;10541434;28;20189;-65
2023/05/25 17:42:30;;;;;;;7.32;4.10;;;;;;;17.63;54.24;97098.88;10540476;28;20226;-66
2023/05/25 17:47:30;;;;;;;9.48;4.50;;;;;;;17.63;54.71;97097.03;10554477;28;20186;-65
2023/05/25 17:52:31;;;;;;;10.95;4.55;;;;;;;17.38;55.19;97094.00;10560322;28;20362;-65
2023/05/25 17:57:31;;;;;;;9.70;4.30;;;;;;;17.10;55.70;97101.84;10557544;28;20197;-65
2023/05/25 18:02:32;;;;;;;9.82;4.22;;;;;;;16.86;56.17;97106.50;10559632;28;20214;-65
2023/05/25 18:07:33;;;;;;;6.93;4.03;;;;;;;16.69;57.72;97124.38;10569963;28;20177;-64
2023/05/25 18:12:33;;;;;;;9.50;3.90;;;;;;;16.47;58.19;97122.69;10580761;28;20312;-65
2023/05/25 18:17:33;;;;;;;8.02;4.10;;;;;;;16.37;59.35;97152.88;10580839;28;20193;-64
2023/05/25 18:22:34;;;;;;;12.10;4.32;;;;;;;16.16;60.54;97153.56;10580524;28;20221;-65
2023/05/25 18:27:34;;;;;;;8.43;3.92;;;;;;;15.81;62.71;97184.94;10580611;28;20281;-65
2023/05/25 18:32:34;;;;;;;11.40;4.22;;;;;;;15.51;63.92;97195.38;10580299;28;20229;-64
2023/05/25 18:37:35;;;;;;;12.45;4.03;;;;;;;15.23;65.18;97197.69;10580262;28;20194;-64
2023/05/25 18:42:36;;;;;;;15.95;5.20;;;;;;;14.82;66.71;97210.25;10579821;28;20261;-65
2023/05/25 18:47:36;;;;;;;23.70;6.95;;;;;;;14.10;71.43;97235.59;10579865;28;20198;-64
2023/05/25 18:52:37;;;;;;;13.40;5.22;;;;;;;13.38;76.01;97239.69;10579037;28;20266;-64
2023/05/25 18:57:37;;;;;;;10.35;4.13;;;;;;;13.19;77.11;97222.31;10537517;28;20193;-64
2023/05/25 19:02:38;;;;;;;8.82;4.60;;;;;;;12.12;82.77;97245.44;10537034;28;20205;-64
2023/05/25 19:07:41;;;;;;;11.70;5.72;;;;;;;11.37;90.15;97253.59;10579178;28;20197;-65
2023/05/25 19:12:42;;;;;;;8.98;5.28;;;;;;;11.07;97.75;97255.56;10578651;28;20597;-64
2023/05/25 19:17:42;;;;;;;17.40;6.82;;;;;;;11.05;100.00;97262.75;10536612;28;20205;-64
2023/05/25 19:22:43;;;;;;;15.40;5.18;;;;;;;10.99;100.00;97270.38;10536190;28;20322;-64
2023/05/25 19:27:43;;;;;;;11.43;6.95;;;;;;;10.75;100.00;97273.50;10577629;28;20194;-64
2023/05/25 19:32:43;;;;;;;10.63;5.35;;;;;;;10.71;100.00;97286.88;10578328;28;20228;-64
2023/05/25 19:37:44;;;;;;;15.00;5.67;;;;;;;10.62;100.00;97293.00;10577564;28;20706;-64
2023/05/25 19:42:44;;;;;;;14.33;5.83;;;;;;;10.49;100.00;97288.06;10577468;28;20229;-65
2023/05/25 19:47:46;;;;;;;13.60;6.07;;;;;;;10.32;100.00;97294.84;10576609;28;20193;-64
2023/05/25 19:52:47;;;;;;;15.27;6.23;;;;;;;10.10;100.00;97302.97;10536194;28;20712;-64
2023/05/25 19:57:47;;;;;;;14.33;6.17;;;;;;;9.88;100.00;97317.19;10567375;28;20187;-64
2023/05/25 20:02:48;;;;;;;16.37;6.53;;;;;;;9.68;100.00;97318.94;10554273;28;20247;-64
2023/05/25 20:07:51;;;;;;;9.10;5.57;;;;;;;9.69;100.00;97317.97;10552488;28;20539;-64
2023/05/25 20:12:51;;;;;;;14.83;5.97;;;;;;;9.55;100.00;97325.25;10534167;28;20626;-64
2023/05/25 20:17:51;;;;;;;10.80;6.67;;;;;;;9.44;100.00;97320.97;10534397;28;20282;-64
2023/05/25 20:22:52;;;;;;;16.63;7.40;;;;;;;9.30;100.00;97325.75;10534058;28;20190;-63
2023/05/25 20:27:52;;;;;;;14.73;7.57;;;;;;;9.16;100.00;97330.38;10533713;28;20328;-63
2023/05/25 20:32:52;;;;;;;18.53;7.03;;;;;;;9.06;100.00;97337.34;10532464;28;20214;-63
2023/05/25 20:37:53;;;;;;;15.00;6.97;;;;;;;9.00;100.00;97337.88;10533018;28;20247;-64
2023/05/25 20:42:53;;;;;;;21.07;6.67;;;;;;;8.96;100.00;97337.31;10533944;28;20270;-64
2023/05/25 20:48:01;;;;;;;10.63;6.03;;;;;;;8.81;100.00;97339.44;10533252;28;20195;-64
2023/05/25 20:53:01;;;;;;;18.97;6.63;;;;;;;8.70;100.00;97339.53;10571782;28;20662;-63
2023/05/25 20:58:01;;;;;;;12.93;6.67;;;;;;;8.66;100.00;97359.84;10536363;28;20277;-64
2023/05/25 21:03:03;;;;;;;12.43;6.33;;;;;;;8.49;100.00;97355.22;10534565;28;20190;-64
2023/05/25 21:08:04;;;;;;;12.93;7.10;;;;;;;8.48;100.00;97367.41;10534680;28;20665;-63
2023/05/25 21:13:05;;;;;;;14.40;6.27;;;;;;;8.45;100.00;97367.66;10534666;28;20272;-63
2023/05/25 21:18:05;;;;;;;10.90;5.73;;;;;;;8.38;100.00;97371.72;10534593;28;20244;-64
2023/05/25 21:23:06;;;;;;;13.27;6.43;;;;;;;8.28;100.00;97376.88;10534724;28;20542;-64
2023/05/25 21:28:07;;;;;;;18.33;7.40;;;;;;;8.20;100.00;97382.72;10534203;28;20211;-63
2023/05/25 21:33:08;;;;;;;15.93;7.07;;;;;;;8.13;100.00;97386.78;10534566;28;20219;-64
2023/05/25 21:38:08;;;;;;;13.20;6.47;;;;;;;8.06;100.00;97383.00;10534112;28;20203;-63
2023/05/25 21:43:09;;;;;;;10.80;6.10;;;;;;;8.02;100.00;97376.38;10538817;28;20194;-63
2023/05/25 21:48:09;;;;;;;16.13;7.07;;;;;;;7.96;100.00;97387.31;10542032;28;20210;-63
2023/05/25 21:53:09;;;;;;;14.10;6.60;;;;;;;7.93;100.00;97387.56;10541632;28;20291;-63
2023/05/25 21:58:11;;;;;;;11.57;6.13;;;;;;;7.85;100.00;97396.81;10541748;28;20218;-64
2023/05/25 22:03:11;;;;;;;20.47;6.57;;;;;;;7.67;100.00;97399.13;10541209;28;20194;-64
2023/05/25 22:08:12;;;;;;;19.87;7.03;;;;;;;7.60;100.00;97391.91;10541364;28;20210;-64
2023/05/25 22:13:12;;;;;;;10.27;5.80;;;;;;;7.56;100.00;97398.31;10540866;28;20634;-64
2023/05/25 22:18:12;;;;;;;19.53;6.83;;;;;;;7.55;100.00;97404.47;10540661;28;20267;-64
2023/05/25 22:23:13;;;;;;;14.37;6.13;;;;;;;7.45;100.00;97409.56;10540598;28;20215;-64
2023/05/25 22:28:13;;;;;;;15.03;7.50;;;;;;;7.41;100.00;97413.34;10540305;28;20236;-64
2023/05/25 22:33:14;;;;;;;11.77;7.20;;;;;;;7.36;100.00;97415.50;10540368;28;20222;-64
2023/05/25 22:38:14;;;;;;;11.70;5.80;;;;;;;7.26;100.00;97418.00;10539684;28;20222;-62
2023/05/25 22:43:14;;;;;;;13.60;5.80;;;;;;;7.18;100.00;97425.56;10539884;28;20198;-64
2023/05/25 22:48:15;;;;;;;13.87;6.87;;;;;;;7.09;100.00;97430.53;10539704;28;20229;-64
2023/05/25 22:53:15;;;;;;;15.47;6.13;;;;;;;7.03;100.00;97433.63;10538596;28;20668;-64
2023/05/25 22:58:16;;;;;;;8.17;5.90;;;;;;;6.95;100.00;97439.41;10539119;28;20566;-64
2023/05/25 23:03:16;;;;;;;9.37;6.33;;;;;;;6.91;100.00;97440.56;10538997;28;20228;-63
2023/05/25 23:08:16;;;;;;;16.73;6.90;;;;;;;6.90;100.00;97438.91;10538615;28;20211;-64